sensor_id;sensor_type;location;lat;lon;timestamp;temperature;humidity
6690;DHT22;76797;51.590;8.116;2024-03-23T00:53:30;12.00;99.90
6690;DHT22;76797;51.590;8.116;2024-03-23T00:55:56;11.90;99.90
6690;DHT22;76797;51.590;8.116;2024-03-23T00:58:21;11.80;99.90
6690;DHT22;76797;51.590;8.116;2024-03-23T01:00:47;11.90;99.90
6690;DHT22;76797;51.590;8.116;2024-03-23T01:03:13;11.80;99.90
6690;DHT22;76797;51.590;8.116;2024-03-23T01:05:38;11.90;99.90
6690;DHT22;76797;51.590;8.116;2024-03-23T01:08:04;12.00;99.90
6690;DHT22;76797;51.590;8.116;2024-03-23T01:10:29;11.90;99.90
6690;DHT22;76797;51.590;8.116;2024-03-23T01:12:55;11.90;99.90
6690;DHT22;76797;51.590;8.116;2024-03-23T01:15:21;11.80;99.90
6690;DHT22;76797;51.590;8.116;2024-03-23T01:17:46;11.80;99.90
6690;DHT22;76797;51.590;8.116;2024-03-23T01:20:12;11.90;99.90
6690;DHT22;76797;51.590;8.116;2024-03-23T01:22:37;11.80;99.90
6690;DHT22;76797;51.590;8.116;2024-03-23T01:25:03;11.70;99.90
6690;DHT22;76797;51.590;8.116;2024-03-23T01:27:29;11.60;99.90
6690;DHT22;76797;51.590;8.116;2024-03-23T01:29:54;11.60;99.90
6690;DHT22;76797;51.590;8.116;2024-03-23T01:32:20;11.70;99.90
6690;DHT22;76797;51.590;8.116;2024-03-23T01:34:45;11.60;99.90
6690;DHT22;76797;51.590;8.116;2024-03-23T01:37:11;11.60;99.90
6690;DHT22;76797;51.590;8.116;2024-03-23T01:39:36;11.40;99.90
6690;DHT22;76797;51.590;8.116;2024-03-23T01:42:02;11.40;99.90
6690;DHT22;76797;51.590;8.116;2024-03-23T01:44:28;11.40;99.90
6690;DHT22;76797;51.590;8.116;2024-03-23T01:46:53;11.40;99.90
6690;DHT22;76797;51.590;8.116;2024-03-23T01:49:19;11.40;99.90
6690;DHT22;76797;51.590;8.116;2024-03-23T01:51:45;11.40;99.90
6690;DHT22;76797;51.590;8.116;2024-03-23T01:54:11;11.40;99.90
6690;DHT22;76797;51.590;8.116;2024-03-23T01:56:36;11.40;99.90
6690;DHT22;76797;51.590;8.116;2024-03-23T01:59:03;11.40;99.90
6690;DHT22;76797;51.590;8.116;2024-03-23T02:01:28;11.30;99.90
6690;DHT22;76797;51.590;8.116;2024-03-23T02:03:54;11.30;99.90
6690;DHT22;76797;51.590;8.116;2024-03-23T02:06:20;11.30;99.90
6690;DHT22;76797;51.590;8.116;2024-03-23T02:08:45;11.50;99.90
6690;DHT22;76797;51.590;8.116;2024-03-23T02:11:11;11.40;99.90
6690;DHT22;76797;51.590;8.116;2024-03-23T02:13:36;11.40;99.90
6690;DHT22;76797;51.590;8.116;2024-03-23T02:16:02;11.40;99.90
6690;DHT22;76797;51.590;8.116;2024-03-23T02:18:27;11.40;99.90
6690;DHT22;76797;51.590;8.116;2024-03-23T02:20:53;11.40;99.90
6690;DHT22;76797;51.590;8.116;2024-03-23T02:23:18;11.40;99.90
6690;DHT22;76797;51.590;8.116;2024-03-23T02:25:44;11.40;99.90
6690;DHT22;76797;51.590;8.116;2024-03-23T02:28:10;11.50;99.90
6690;DHT22;76797;51.590;8.116;2024-03-23T02:30:36;11.40;99.90
6690;DHT22;76797;51.590;8.116;2024-03-23T02:33:03;11.40;99.90
6690;DHT22;76797;51.590;8.116;2024-03-23T02:35:28;11.40;99.90
6690;DHT22;76797;51.590;8.116;2024-03-23T02:37:54;11.40;99.90
6690;DHT22;76797;51.590;8.116;2024-03-23T02:40:22;11.50;99.90
6690;DHT22;76797;51.590;8.116;2024-03-23T02:42:47;11.40;99.90
6690;DHT22;76797;51.590;8.116;2024-03-23T02:45:13;11.90;99.90
6690;DHT22;76797;51.590;8.116;2024-03-23T02:47:39;11.40;99.90
6690;DHT22;76797;51.590;8.116;2024-03-23T02:50:04;11.40;99.90
6690;DHT22;76797;51.590;8.116;2024-03-23T02:52:30;11.40;99.90
6690;DHT22;76797;51.590;8.116;2024-03-23T02:54:56;11.40;99.90
6690;DHT22;76797;51.590;8.116;2024-03-23T02:57:22;11.70;99.90
6690;DHT22;76797;51.590;8.116;2024-03-23T02:59:47;11.80;99.90
6690;DHT22;76797;51.590;8.116;2024-03-23T03:02:14;11.50;99.90
6690;DHT22;76797;51.590;8.116;2024-03-23T03:04:40;11.50;99.90
6690;DHT22;76797;51.590;8.116;2024-03-23T03:07:06;11.20;99.90
6690;DHT22;76797;51.590;8.116;2024-03-23T03:09:31;11.70;99.90
6690;DHT22;76797;51.590;8.116;2024-03-23T03:11:58;11.20;99.90
6690;DHT22;76797;51.590;8.116;2024-03-23T03:14:23;11.20;99.90
6690;DHT22;76797;51.590;8.116;2024-03-23T03:16:49;11.50;99.90
6690;DHT22;76797;51.590;8.116;2024-03-23T03:19:14;11.20;99.90
6690;DHT22;76797;51.590;8.116;2024-03-23T03:21:42;11.10;99.90
6690;DHT22;76797;51.590;8.116;2024-03-23T03:24:07;11.10;99.90
6690;DHT22;76797;51.590;8.116;2024-03-23T03:26:33;11.10;99.90
6690;DHT22;76797;51.590;8.116;2024-03-23T03:28:58;11.10;99.90
6690;DHT22;76797;51.590;8.116;2024-03-23T03:31:24;11.10;99.90
6690;DHT22;76797;51.590;8.116;2024-03-23T03:33:49;11.40;99.90
6690;DHT22;76797;51.590;8.116;2024-03-23T03:36:15;11.00;99.90
6690;DHT22;76797;51.590;8.116;2024-03-23T03:38:41;11.00;99.90
6690;DHT22;76797;51.590;8.116;2024-03-23T03:41:06;11.00;99.90
6690;DHT22;76797;51.590;8.116;2024-03-23T03:43:32;11.00;99.90
6690;DHT22;76797;51.590;8.116;2024-03-23T03:45:59;10.90;99.90
6690;DHT22;76797;51.590;8.116;2024-03-23T03:48:25;10.90;99.90
6690;DHT22;76797;51.590;8.116;2024-03-23T03:50:51;10.90;99.90
6690;DHT22;76797;51.590;8.116;2024-03-23T03:53:17;10.90;99.90
6690;DHT22;76797;51.590;8.116;2024-03-23T03:55:42;11.10;99.90
6690;DHT22;76797;51.590;8.116;2024-03-23T03:58:08;10.80;99.90
6690;DHT22;76797;51.590;8.116;2024-03-23T04:00:34;11.10;99.90
6690;DHT22;76797;51.590;8.116;2024-03-23T04:02:59;10.70;99.90
6690;DHT22;76797;51.590;8.116;2024-03-23T04:05:25;10.70;99.90
6690;DHT22;76797;51.590;8.116;2024-03-23T04:07:50;10.80;99.90
6690;DHT22;76797;51.590;8.116;2024-03-23T04:10:16;10.70;99.90
6690;DHT22;76797;51.590;8.116;2024-03-23T04:12:43;10.80;99.90
6690;DHT22;76797;51.590;8.116;2024-03-23T04:15:08;11.00;99.90
6690;DHT22;76797;51.590;8.116;2024-03-23T04:17:34;10.60;99.90
6690;DHT22;76797;51.590;8.116;2024-03-23T04:20:00;10.50;99.90
6690;DHT22;76797;51.590;8.116;2024-03-23T04:22:27;10.50;99.90
6690;DHT22;76797;51.590;8.116;2024-03-23T04:24:58;10.40;99.90
6690;DHT22;76797;51.590;8.116;2024-03-23T04:27:24;10.40;99.90
6690;DHT22;76797;51.590;8.116;2024-03-23T04:29:50;10.90;99.90
6690;DHT22;76797;51.590;8.116;2024-03-23T04:32:16;10.30;99.90
6690;DHT22;76797;51.590;8.116;2024-03-23T04:34:42;10.30;99.90
6690;DHT22;76797;51.590;8.116;2024-03-23T04:37:09;10.50;99.90
6690;DHT22;76797;51.590;8.116;2024-03-23T04:39:36;10.30;99.90
6690;DHT22;76797;51.590;8.116;2024-03-23T04:42:02;10.80;99.90
6690;DHT22;76797;51.590;8.116;2024-03-23T04:44:28;10.40;99.90
6690;DHT22;76797;51.590;8.116;2024-03-23T04:46:53;10.50;99.90
6690;DHT22;76797;51.590;8.116;2024-03-23T04:49:19;10.50;99.90
6690;DHT22;76797;51.590;8.116;2024-03-23T04:51:44;10.40;99.90
6690;DHT22;76797;51.590;8.116;2024-03-23T04:54:14;10.50;99.90
6690;DHT22;76797;51.590;8.116;2024-03-23T04:56:40;10.50;99.90
6690;DHT22;76797;51.590;8.116;2024-03-23T04:59:06;10.80;99.90
6690;DHT22;76797;51.590;8.116;2024-03-23T05:01:32;10.50;99.90
6690;DHT22;76797;51.590;8.116;2024-03-23T05:03:58;10.50;99.90
6690;DHT22;76797;51.590;8.116;2024-03-23T05:06:24;10.50;99.90
6690;DHT22;76797;51.590;8.116;2024-03-23T05:08:50;10.50;99.90
6690;DHT22;76797;51.590;8.116;2024-03-23T05:11:16;10.60;99.90
6690;DHT22;76797;51.590;8.116;2024-03-23T05:13:42;10.60;99.90
6690;DHT22;76797;51.590;8.116;2024-03-23T05:16:07;10.90;99.90
6690;DHT22;76797;51.590;8.116;2024-03-23T05:18:34;10.60;99.90
6690;DHT22;76797;51.590;8.116;2024-03-23T05:20:59;10.50;99.90
6690;DHT22;76797;51.590;8.116;2024-03-23T05:23:26;10.60;99.90
6690;DHT22;76797;51.590;8.116;2024-03-23T05:25:51;10.50;99.90
6690;DHT22;76797;51.590;8.116;2024-03-23T05:28:17;10.50;99.90
6690;DHT22;76797;51.590;8.116;2024-03-23T05:30:43;10.60;99.90
6690;DHT22;76797;51.590;8.116;2024-03-23T05:33:09;10.60;99.90
6690;DHT22;76797;51.590;8.116;2024-03-23T05:35:34;10.60;99.90
6690;DHT22;76797;51.590;8.116;2024-03-23T05:38:00;10.60;99.90
6690;DHT22;76797;51.590;8.116;2024-03-23T05:40:26;10.60;99.90
6690;DHT22;76797;51.590;8.116;2024-03-23T05:42:52;10.90;99.90
6690;DHT22;76797;51.590;8.116;2024-03-23T05:45:19;10.60;99.90
6690;DHT22;76797;51.590;8.116;2024-03-23T05:47:44;10.60;99.90
6690;DHT22;76797;51.590;8.116;2024-03-23T05:50:10;10.60;99.90
6690;DHT22;76797;51.590;8.116;2024-03-23T05:52:38;10.70;99.90
6690;DHT22;76797;51.590;8.116;2024-03-23T05:55:04;10.70;99.90
6690;DHT22;76797;51.590;8.116;2024-03-23T05:57:30;10.70;99.90
6690;DHT22;76797;51.590;8.116;2024-03-23T05:59:55;11.00;99.90
6690;DHT22;76797;51.590;8.116;2024-03-23T06:02:21;10.60;99.90
6690;DHT22;76797;51.590;8.116;2024-03-23T06:04:47;10.60;99.90
6690;DHT22;76797;51.590;8.116;2024-03-23T06:07:12;10.70;99.90
6690;DHT22;76797;51.590;8.116;2024-03-23T06:09:40;10.60;99.90
6690;DHT22;76797;51.590;8.116;2024-03-23T06:12:06;10.70;99.90
6690;DHT22;76797;51.590;8.116;2024-03-23T06:14:31;10.70;99.90
6690;DHT22;76797;51.590;8.116;2024-03-23T06:16:58;10.60;99.90
6690;DHT22;76797;51.590;8.116;2024-03-23T06:19:24;10.60;99.90
6690;DHT22;76797;51.590;8.116;2024-03-23T06:21:52;10.60;99.90
6690;DHT22;76797;51.590;8.116;2024-03-23T06:24:17;10.60;99.90
6690;DHT22;76797;51.590;8.116;2024-03-23T06:26:43;11.00;99.90
6690;DHT22;76797;51.590;8.116;2024-03-23T06:29:09;10.70;99.90
6690;DHT22;76797;51.590;8.116;2024-03-23T06:31:34;10.70;99.90
6690;DHT22;76797;51.590;8.116;2024-03-23T06:34:00;10.70;99.90
6690;DHT22;76797;51.590;8.116;2024-03-23T06:36:27;10.70;99.90
6690;DHT22;76797;51.590;8.116;2024-03-23T06:38:52;10.70;99.90
6690;DHT22;76797;51.590;8.116;2024-03-23T06:41:19;11.10;99.90
6690;DHT22;76797;51.590;8.116;2024-03-23T06:43:45;10.60;99.90
6690;DHT22;76797;51.590;8.116;2024-03-23T06:46:10;10.70;99.90
6690;DHT22;76797;51.590;8.116;2024-03-23T06:48:36;10.70;99.90
6690;DHT22;76797;51.590;8.116;2024-03-23T06:51:01;10.70;99.90
6690;DHT22;76797;51.590;8.116;2024-03-23T06:53:27;10.80;99.90
6690;DHT22;76797;51.590;8.116;2024-03-23T06:55:53;10.80;99.90
6690;DHT22;76797;51.590;8.116;2024-03-23T06:58:24;11.30;99.90
6690;DHT22;76797;51.590;8.116;2024-03-23T07:00:50;10.90;99.90
6690;DHT22;76797;51.590;8.116;2024-03-23T07:03:16;11.10;99.90
6690;DHT22;76797;51.590;8.116;2024-03-23T07:05:42;11.30;99.90
6690;DHT22;76797;51.590;8.116;2024-03-23T07:08:08;11.00;99.90
6690;DHT22;76797;51.590;8.116;2024-03-23T07:10:34;10.90;99.90
6690;DHT22;76797;51.590;8.116;2024-03-23T07:12:59;11.20;99.90
6690;DHT22;76797;51.590;8.116;2024-03-23T07:15:25;11.30;99.90
6690;DHT22;76797;51.590;8.116;2024-03-23T07:17:51;10.90;99.90
6690;DHT22;76797;51.590;8.116;2024-03-23T07:20:16;11.00;99.90
6690;DHT22;76797;51.590;8.116;2024-03-23T07:22:42;11.00;99.90
6690;DHT22;76797;51.590;8.116;2024-03-23T07:25:07;11.00;99.90
6690;DHT22;76797;51.590;8.116;2024-03-23T07:27:33;11.10;99.90
6690;DHT22;76797;51.590;8.116;2024-03-23T07:29:59;11.90;99.90
6690;DHT22;76797;51.590;8.116;2024-03-23T07:32:26;11.40;99.90
6690;DHT22;76797;51.590;8.116;2024-03-23T07:34:52;11.20;99.90
6690;DHT22;76797;51.590;8.116;2024-03-23T07:37:18;11.20;99.90
6690;DHT22;76797;51.590;8.116;2024-03-23T07:39:43;11.30;99.90
6690;DHT22;76797;51.590;8.116;2024-03-23T07:42:09;11.20;99.90
6690;DHT22;76797;51.590;8.116;2024-03-23T07:44:34;11.30;99.90
6690;DHT22;76797;51.590;8.116;2024-03-23T07:47:00;11.60;99.90
6690;DHT22;76797;51.590;8.116;2024-03-23T07:49:26;11.20;99.90
6690;DHT22;76797;51.590;8.116;2024-03-23T07:51:52;11.20;99.90
6690;DHT22;76797;51.590;8.116;2024-03-23T07:54:17;11.70;99.90
6690;DHT22;76797;51.590;8.116;2024-03-23T07:56:43;11.30;99.90
6690;DHT22;76797;51.590;8.116;2024-03-23T07:59:09;11.70;99.90
6690;DHT22;76797;51.590;8.116;2024-03-23T08:01:34;11.70;99.90
6690;DHT22;76797;51.590;8.116;2024-03-23T08:04:00;11.40;99.90
6690;DHT22;76797;51.590;8.116;2024-03-23T08:06:26;12.00;99.90
6690;DHT22;76797;51.590;8.116;2024-03-23T08:08:54;11.90;99.90
6690;DHT22;76797;51.590;8.116;2024-03-23T08:11:25;11.60;99.90
6690;DHT22;76797;51.590;8.116;2024-03-23T08:13:51;11.70;99.90
6690;DHT22;76797;51.590;8.116;2024-03-23T08:16:17;11.70;99.90
6690;DHT22;76797;51.590;8.116;2024-03-23T08:18:42;11.80;99.90
6690;DHT22;76797;51.590;8.116;2024-03-23T08:21:08;11.80;99.90
6690;DHT22;76797;51.590;8.116;2024-03-23T08:23:34;11.90;99.90
6690;DHT22;76797;51.590;8.116;2024-03-23T08:26:09;11.90;99.90
6690;DHT22;76797;51.590;8.116;2024-03-23T08:28:36;12.00;99.90
6690;DHT22;76797;51.590;8.116;2024-03-23T08:31:04;12.10;99.90
6690;DHT22;76797;51.590;8.116;2024-03-23T08:33:31;12.20;99.90
6690;DHT22;76797;51.590;8.116;2024-03-23T08:36:01;12.20;99.90
6690;DHT22;76797;51.590;8.116;2024-03-23T08:38:27;12.30;99.90
6690;DHT22;76797;51.590;8.116;2024-03-23T08:41:09;12.30;99.90
6690;DHT22;76797;51.590;8.116;2024-03-23T08:43:39;12.40;99.90
6690;DHT22;76797;51.590;8.116;2024-03-23T08:46:10;12.40;99.90
6690;DHT22;76797;51.590;8.116;2024-03-23T08:48:38;12.40;99.90
6690;DHT22;76797;51.590;8.116;2024-03-23T08:51:05;12.50;99.90
6690;DHT22;76797;51.590;8.116;2024-03-23T08:53:31;12.40;99.90
6690;DHT22;76797;51.590;8.116;2024-03-23T08:55:58;12.70;99.90
6690;DHT22;76797;51.590;8.116;2024-03-23T08:58:25;12.40;99.90
6690;DHT22;76797;51.590;8.116;2024-03-23T09:00:51;13.00;99.90
6690;DHT22;76797;51.590;8.116;2024-03-23T09:03:17;12.50;99.90
6690;DHT22;76797;51.590;8.116;2024-03-23T09:05:42;13.10;99.90
6690;DHT22;76797;51.590;8.116;2024-03-23T09:08:08;13.00;99.90
6690;DHT22;76797;51.590;8.116;2024-03-23T09:10:38;12.90;99.90
6690;DHT22;76797;51.590;8.116;2024-03-23T09:13:04;13.30;99.90
6690;DHT22;76797;51.590;8.116;2024-03-23T09:15:30;13.00;99.90
6690;DHT22;76797;51.590;8.116;2024-03-23T09:17:58;13.00;99.90
6690;DHT22;76797;51.590;8.116;2024-03-23T09:20:24;13.00;99.90
6690;DHT22;76797;51.590;8.116;2024-03-23T09:22:49;13.20;99.90
6690;DHT22;76797;51.590;8.116;2024-03-23T09:25:15;13.10;99.90
6690;DHT22;76797;51.590;8.116;2024-03-23T09:27:40;13.10;99.90
6690;DHT22;76797;51.590;8.116;2024-03-23T09:30:06;13.00;99.90
6690;DHT22;76797;51.590;8.116;2024-03-23T09:32:32;13.10;99.90
6690;DHT22;76797;51.590;8.116;2024-03-23T09:34:57;13.10;99.90
6690;DHT22;76797;51.590;8.116;2024-03-23T09:37:22;13.20;99.90
6690;DHT22;76797;51.590;8.116;2024-03-23T09:39:48;13.30;99.90
6690;DHT22;76797;51.590;8.116;2024-03-23T09:42:13;13.30;99.90
6690;DHT22;76797;51.590;8.116;2024-03-23T09:44:40;13.20;99.90
6690;DHT22;76797;51.590;8.116;2024-03-23T09:47:06;13.20;99.90
6690;DHT22;76797;51.590;8.116;2024-03-23T09:49:33;13.20;99.90
6690;DHT22;76797;51.590;8.116;2024-03-23T09:52:02;13.20;99.90
6690;DHT22;76797;51.590;8.116;2024-03-23T09:54:28;13.20;99.90
6690;DHT22;76797;51.590;8.116;2024-03-23T09:56:53;13.60;99.90
6690;DHT22;76797;51.590;8.116;2024-03-23T09:59:19;13.30;99.90
6690;DHT22;76797;51.590;8.116;2024-03-23T10:01:44;13.40;99.90
6690;DHT22;76797;51.590;8.116;2024-03-23T10:04:10;13.40;99.90
6690;DHT22;76797;51.590;8.116;2024-03-23T10:06:35;13.40;99.90
6690;DHT22;76797;51.590;8.116;2024-03-23T10:09:02;13.50;99.90
6690;DHT22;76797;51.590;8.116;2024-03-23T10:11:32;13.60;99.90
6690;DHT22;76797;51.590;8.116;2024-03-23T10:13:58;13.60;99.90
6690;DHT22;76797;51.590;8.116;2024-03-23T10:16:24;13.70;99.90
6690;DHT22;76797;51.590;8.116;2024-03-23T10:18:50;13.70;99.90
6690;DHT22;76797;51.590;8.116;2024-03-23T10:21:16;13.70;99.90
6690;DHT22;76797;51.590;8.116;2024-03-23T10:23:42;13.70;99.90
6690;DHT22;76797;51.590;8.116;2024-03-23T10:28:59;13.70;99.90
6690;DHT22;76797;51.590;8.116;2024-03-23T10:31:30;13.80;99.90
6690;DHT22;76797;51.590;8.116;2024-03-23T10:33:56;13.80;99.90
6690;DHT22;76797;51.590;8.116;2024-03-23T10:36:24;13.90;99.90
6690;DHT22;76797;51.590;8.116;2024-03-23T10:38:54;13.90;99.90
6690;DHT22;76797;51.590;8.116;2024-03-23T10:41:20;13.80;99.90
6690;DHT22;76797;51.590;8.116;2024-03-23T10:43:47;13.70;99.90
6690;DHT22;76797;51.590;8.116;2024-03-23T10:46:13;13.50;99.90
6690;DHT22;76797;51.590;8.116;2024-03-23T10:48:39;13.30;99.90
6690;DHT22;76797;51.590;8.116;2024-03-23T10:51:07;13.20;99.90
6690;DHT22;76797;51.590;8.116;2024-03-23T10:53:34;13.20;99.90
6690;DHT22;76797;51.590;8.116;2024-03-23T10:56:00;13.20;99.90
6690;DHT22;76797;51.590;8.116;2024-03-23T10:58:40;13.10;99.90
6690;DHT22;76797;51.590;8.116;2024-03-23T11:01:06;13.20;99.90
6690;DHT22;76797;51.590;8.116;2024-03-23T11:05:58;13.60;99.90
6690;DHT22;76797;51.590;8.116;2024-03-23T11:08:40;13.60;99.90
6690;DHT22;76797;51.590;8.116;2024-03-23T11:11:14;13.60;99.90
6690;DHT22;76797;51.590;8.116;2024-03-23T11:13:39;13.70;99.90
6690;DHT22;76797;51.590;8.116;2024-03-23T11:16:15;13.90;99.90
6690;DHT22;76797;51.590;8.116;2024-03-23T11:18:47;13.70;99.90
6690;DHT22;76797;51.590;8.116;2024-03-23T11:21:51;13.70;99.90
6690;DHT22;76797;51.590;8.116;2024-03-23T11:24:17;13.70;99.90
6690;DHT22;76797;51.590;8.116;2024-03-23T11:26:43;13.70;99.90
6690;DHT22;76797;51.590;8.116;2024-03-23T11:29:10;13.70;99.90
6690;DHT22;76797;51.590;8.116;2024-03-23T11:31:37;13.80;99.90
6690;DHT22;76797;51.590;8.116;2024-03-23T11:34:06;13.70;99.90
6690;DHT22;76797;51.590;8.116;2024-03-23T11:36:32;13.70;99.90
6690;DHT22;76797;51.590;8.116;2024-03-23T11:38:58;13.70;99.90
6690;DHT22;76797;51.590;8.116;2024-03-23T11:41:23;13.60;99.90
6690;DHT22;76797;51.590;8.116;2024-03-23T11:43:50;13.70;99.90
6690;DHT22;76797;51.590;8.116;2024-03-23T11:46:22;13.60;99.90
6690;DHT22;76797;51.590;8.116;2024-03-23T11:48:51;13.60;99.90
6690;DHT22;76797;51.590;8.116;2024-03-23T11:51:17;13.60;99.90
6690;DHT22;76797;51.590;8.116;2024-03-23T11:53:43;13.60;99.90
6690;DHT22;76797;51.590;8.116;2024-03-23T11:56:08;13.70;99.90
6690;DHT22;76797;51.590;8.116;2024-03-23T11:58:35;13.90;99.90
6690;DHT22;76797;51.590;8.116;2024-03-23T12:01:02;13.60;99.90
6690;DHT22;76797;51.590;8.116;2024-03-23T12:03:29;13.70;99.90
6690;DHT22;76797;51.590;8.116;2024-03-23T12:05:56;13.60;99.90
6690;DHT22;76797;51.590;8.116;2024-03-23T12:10:49;13.60;99.90
6690;DHT22;76797;51.590;8.116;2024-03-23T12:13:16;13.50;99.90
6690;DHT22;76797;51.590;8.116;2024-03-23T12:15:43;13.20;99.90
6690;DHT22;76797;51.590;8.116;2024-03-23T12:18:09;13.00;99.90
6690;DHT22;76797;51.590;8.116;2024-03-23T12:20:36;12.70;99.90
6690;DHT22;76797;51.590;8.116;2024-03-23T12:23:10;12.40;99.90
6690;DHT22;76797;51.590;8.116;2024-03-23T12:25:37;12.20;99.90
6690;DHT22;76797;51.590;8.116;2024-03-23T12:28:03;12.00;99.90
6690;DHT22;76797;51.590;8.116;2024-03-23T12:30:40;11.80;99.90
6690;DHT22;76797;51.590;8.116;2024-03-23T12:33:06;11.80;99.90
6690;DHT22;76797;51.590;8.116;2024-03-23T12:35:32;11.70;99.90
6690;DHT22;76797;51.590;8.116;2024-03-23T12:37:58;11.90;99.90
6690;DHT22;76797;51.590;8.116;2024-03-23T12:40:24;11.80;99.90
6690;DHT22;76797;51.590;8.116;2024-03-23T12:42:49;11.90;99.90
6690;DHT22;76797;51.590;8.116;2024-03-23T12:45:15;11.80;99.90
6690;DHT22;76797;51.590;8.116;2024-03-23T12:47:40;11.80;99.90
6690;DHT22;76797;51.590;8.116;2024-03-23T12:50:06;12.00;99.90
6690;DHT22;76797;51.590;8.116;2024-03-23T12:52:32;11.80;99.90
6690;DHT22;76797;51.590;8.116;2024-03-23T12:54:58;11.80;99.90
6690;DHT22;76797;51.590;8.116;2024-03-23T12:57:24;11.80;99.90
6690;DHT22;76797;51.590;8.116;2024-03-23T12:59:54;12.30;99.90
6690;DHT22;76797;51.590;8.116;2024-03-23T13:02:20;11.90;99.90
6690;DHT22;76797;51.590;8.116;2024-03-23T13:04:49;11.90;99.90
6690;DHT22;76797;51.590;8.116;2024-03-23T13:07:14;11.90;99.90
6690;DHT22;76797;51.590;8.116;2024-03-23T13:09:40;12.00;99.90
6690;DHT22;76797;51.590;8.116;2024-03-23T13:12:06;12.10;99.90
6690;DHT22;76797;51.590;8.116;2024-03-23T13:14:31;12.20;99.90
6690;DHT22;76797;51.590;8.116;2024-03-23T13:16:57;12.20;99.90
6690;DHT22;76797;51.590;8.116;2024-03-23T13:19:23;12.40;99.90
6690;DHT22;76797;51.590;8.116;2024-03-23T13:21:55;12.50;99.90
6690;DHT22;76797;51.590;8.116;2024-03-23T13:24:24;12.60;99.90
6690;DHT22;76797;51.590;8.116;2024-03-23T13:26:51;12.70;99.90
6690;DHT22;76797;51.590;8.116;2024-03-23T13:29:17;12.70;99.90
6690;DHT22;76797;51.590;8.116;2024-03-23T13:31:42;12.80;99.90
6690;DHT22;76797;51.590;8.116;2024-03-23T13:34:08;12.90;99.90
6690;DHT22;76797;51.590;8.116;2024-03-23T13:36:33;12.90;99.90
6690;DHT22;76797;51.590;8.116;2024-03-23T13:38:59;12.90;99.90
6690;DHT22;76797;51.590;8.116;2024-03-23T13:41:25;12.90;99.90
6690;DHT22;76797;51.590;8.116;2024-03-23T13:43:50;12.90;99.90
6690;DHT22;76797;51.590;8.116;2024-03-23T13:46:16;12.70;99.90
6690;DHT22;76797;51.590;8.116;2024-03-23T13:48:41;12.50;99.90
6690;DHT22;76797;51.590;8.116;2024-03-23T13:51:07;12.30;99.90
6690;DHT22;76797;51.590;8.116;2024-03-23T13:53:33;12.20;99.90
6690;DHT22;76797;51.590;8.116;2024-03-23T13:55:59;12.10;99.90
6690;DHT22;76797;51.590;8.116;2024-03-23T13:58:24;12.00;99.90
6690;DHT22;76797;51.590;8.116;2024-03-23T14:00:53;11.90;99.90
6690;DHT22;76797;51.590;8.116;2024-03-23T14:03:18;11.90;99.90
6690;DHT22;76797;51.590;8.116;2024-03-23T14:05:44;12.40;99.90
6690;DHT22;76797;51.590;8.116;2024-03-23T14:08:10;11.90;99.90
6690;DHT22;76797;51.590;8.116;2024-03-23T14:10:36;11.90;99.90
6690;DHT22;76797;51.590;8.116;2024-03-23T14:13:05;11.90;99.90
6690;DHT22;76797;51.590;8.116;2024-03-23T14:15:30;12.00;99.90
6690;DHT22;76797;51.590;8.116;2024-03-23T14:17:56;12.00;99.90
6690;DHT22;76797;51.590;8.116;2024-03-23T14:20:22;12.10;99.90
6690;DHT22;76797;51.590;8.116;2024-03-23T14:22:48;12.20;99.90
6690;DHT22;76797;51.590;8.116;2024-03-23T14:25:14;12.20;99.90
6690;DHT22;76797;51.590;8.116;2024-03-23T14:27:40;12.20;99.90
6690;DHT22;76797;51.590;8.116;2024-03-23T14:30:06;12.10;99.90
6690;DHT22;76797;51.590;8.116;2024-03-23T14:32:32;12.00;99.90
6690;DHT22;76797;51.590;8.116;2024-03-23T14:35:03;11.70;99.90
6690;DHT22;76797;51.590;8.116;2024-03-23T14:37:29;11.50;99.90
6690;DHT22;76797;51.590;8.116;2024-03-23T14:39:58;11.60;99.90
6690;DHT22;76797;51.590;8.116;2024-03-23T14:42:24;11.30;99.90
6690;DHT22;76797;51.590;8.116;2024-03-23T14:44:52;11.20;99.90
6690;DHT22;76797;51.590;8.116;2024-03-23T14:47:18;11.20;99.90
6690;DHT22;76797;51.590;8.116;2024-03-23T14:49:45;11.20;99.90
6690;DHT22;76797;51.590;8.116;2024-03-23T14:52:18;11.20;99.90
6690;DHT22;76797;51.590;8.116;2024-03-23T14:54:44;11.20;99.90
6690;DHT22;76797;51.590;8.116;2024-03-23T14:57:09;11.20;99.90
6690;DHT22;76797;51.590;8.116;2024-03-23T14:59:35;11.20;99.90
6690;DHT22;76797;51.590;8.116;2024-03-23T15:02:03;11.30;99.90
6690;DHT22;76797;51.590;8.116;2024-03-23T15:04:29;11.40;99.90
6690;DHT22;76797;51.590;8.116;2024-03-23T15:06:54;11.30;99.90
6690;DHT22;76797;51.590;8.116;2024-03-23T15:09:20;11.40;99.90
6690;DHT22;76797;51.590;8.116;2024-03-23T15:11:45;11.40;99.90
6690;DHT22;76797;51.590;8.116;2024-03-23T15:14:11;11.40;99.90
6690;DHT22;76797;51.590;8.116;2024-03-23T15:16:37;11.40;99.90
6690;DHT22;76797;51.590;8.116;2024-03-23T15:19:02;11.40;99.90
6690;DHT22;76797;51.590;8.116;2024-03-23T15:21:30;11.40;99.90
6690;DHT22;76797;51.590;8.116;2024-03-23T15:23:56;11.40;99.90
6690;DHT22;76797;51.590;8.116;2024-03-23T15:26:23;11.40;99.90
6690;DHT22;76797;51.590;8.116;2024-03-23T15:28:48;11.50;99.90
6690;DHT22;76797;51.590;8.116;2024-03-23T15:31:23;11.50;99.90
6690;DHT22;76797;51.590;8.116;2024-03-23T15:33:49;11.50;99.90
6690;DHT22;76797;51.590;8.116;2024-03-23T15:36:15;11.50;99.90
6690;DHT22;76797;51.590;8.116;2024-03-23T15:38:41;11.50;99.90
6690;DHT22;76797;51.590;8.116;2024-03-23T15:41:08;11.60;99.90
6690;DHT22;76797;51.590;8.116;2024-03-23T15:43:33;11.60;99.90
6690;DHT22;76797;51.590;8.116;2024-03-23T15:46:01;11.60;99.90
6690;DHT22;76797;51.590;8.116;2024-03-23T15:48:30;11.60;99.90
6690;DHT22;76797;51.590;8.116;2024-03-23T15:50:58;11.60;99.90
6690;DHT22;76797;51.590;8.116;2024-03-23T15:53:25;11.60;99.90
6690;DHT22;76797;51.590;8.116;2024-03-23T15:55:58;12.10;99.90
6690;DHT22;76797;51.590;8.116;2024-03-23T15:58:24;11.80;99.90
6690;DHT22;76797;51.590;8.116;2024-03-23T16:01:04;11.60;99.90
6690;DHT22;76797;51.590;8.116;2024-03-23T16:03:30;11.60;99.90
6690;DHT22;76797;51.590;8.116;2024-03-23T16:05:58;11.60;99.90
6690;DHT22;76797;51.590;8.116;2024-03-23T16:08:24;11.60;99.90
6690;DHT22;76797;51.590;8.116;2024-03-23T16:10:51;11.60;99.90
6690;DHT22;76797;51.590;8.116;2024-03-23T16:13:17;11.60;99.90
6690;DHT22;76797;51.590;8.116;2024-03-23T16:15:43;11.60;99.90
6690;DHT22;76797;51.590;8.116;2024-03-23T16:18:09;11.60;99.90
6690;DHT22;76797;51.590;8.116;2024-03-23T16:20:34;11.60;99.90
6690;DHT22;76797;51.590;8.116;2024-03-23T16:23:01;12.20;99.90
6690;DHT22;76797;51.590;8.116;2024-03-23T16:25:26;11.70;99.90
6690;DHT22;76797;51.590;8.116;2024-03-23T16:27:52;11.90;99.90
6690;DHT22;76797;51.590;8.116;2024-03-23T16:30:18;11.80;99.90
6690;DHT22;76797;51.590;8.116;2024-03-23T16:32:44;11.70;99.90
6690;DHT22;76797;51.590;8.116;2024-03-23T16:35:09;11.70;99.90
6690;DHT22;76797;51.590;8.116;2024-03-23T16:37:35;11.90;99.90
6690;DHT22;76797;51.590;8.116;2024-03-23T16:40:01;11.60;99.90